Daniel López

Recruteur - Granada
20 Janv 2028
Jeudi
Processus

Personnalité

Adaptabilité (1) Ambition (13) Controverse (15) Loyauté (18) Pression (6) Professionnalisme (14) Sportivité (2) Tempérament (1)

Profil

Style d'entraînement Démocratique
Diplôme Continental Pro
Détermination 11
Gestion des joueurs 7
Motivation 11
Discipline 4
Satisfaction professionnelle
100%
Fatigue
0%
Rôle Recruteur
Salaire 81.2K p/s
Contrat 14.03.2028

Performance

Comportement Bon
Efficacité de l'entraînement
39%
Développement des joueurs
45%
Prévention des blessures
55%
Mise en place tactique
30%

Événements récents

Négociation de contrat entamée maintenant
En formation continue maintenant
A participé à une réunion de recrutement maintenant
A recommandé une cible de transfert maintenant
A recommandé une cible de transfert maintenant
A recommandé une cible de transfert maintenant
Négociation de contrat entamée maintenant
En formation continue maintenant

Suivi en cours

202
Joueur Club Statut Capacité Confiance Observé Dernière observation Dernier vote
Héctor Fort Real Sociedad Actif 143 / 137 40% 2 11.01.2028 -
Alpha Touré FC Metz Actif 117 / 126 40% 1 11.01.2028 -
Ignacio Fernández Boston River Actif 87 / 88 40% 1 11.01.2028 -
Lucas Camejo River Plate Actif 86 / 96 40% 7 10.01.2028 -
Tiago Gordillo San Miguel Actif 84 / 97 40% 2 10.01.2028 -
Lucas Høgsberg RC Strasbourg Actif 137 / 137 40% 1 10.01.2028 -
Martinelli VfL Wolfsburg Actif 138 / 140 66% 1 01.01.2028 Approuver
Luis Otávio Colorado Rapids Actif 115 / 113 40% 2 31.12.2027 -
Archie Gray Derby County Actif 153 / 150 40% 2 31.12.2027 -
Noahkai Banks Hamburger SV Actif 144 / 140 40% 1 31.12.2027 -
Mateo Peralta Danubio Actif 121 / 111 40% 6 30.12.2027 -
Tiziano Cabrera Central Norte Actif 80 / 102 40% 4 30.12.2027 -
David Valencia Alianza Petrolera Actif 119 / 137 40% 4 28.12.2027 -
Santino Carrizo Chacarita Juniors Actif 88 / 85 40% 2 28.12.2027 -
Ryunosuke Sato Valencia Actif 139 / 131 40% 1 28.12.2027 -
Franco Minerva Platense Actif 115 / 121 40% 4 26.12.2027 -
Brandon Álvarez Penarol Actif 96 / 100 40% 5 25.12.2027 -
Caleb Yirenkyi Coventry City Actif 138 / 151 40% 6 24.12.2027 -
Ronan Kpakio Cardiff City Actif 128 / 126 40% 2 24.12.2027 -
Juan Rodríguez Wanderers Actif 108 / 113 40% 1 24.12.2027 -
Emiliano Zambrano Gimnasia y Esgrima Actif 86 / 100 40% 3 23.12.2027 -
Siyabonga Mabena Chippa United Actif 124 / 139 40% 1 23.12.2027 -
Dani Díaz Real Sociedad Actif 119 / 130 40% 1 23.12.2027 -
Tomás Aranda Boca Juniors Actif 104 / 122 40% 7 20.12.2027 -
Gilberto Mora Atlético Madrid Actif 130 / 146 40% 1 17.12.2027 -
Josh Nichols Tranmere Rovers Actif 116 / 128 40% 1 17.12.2027 -
Santiago López Independiente Actif 114 / 138 40% 3 16.12.2027 -
Ruben Ramos LA Galaxy Actif 91 / 118 40% 1 16.12.2027 -
Gustavo Lozano Metropolitanos Actif 100 / 89 40% 4 15.12.2027 -
Alfie James Ventforet Kofu Actif 90 / 80 40% 4 15.12.2027 -
Musa Malik Ikorodu City Actif 89 / 95 40% 4 14.12.2027 -
Luca Regiardo Newell's Old Boys Actif 107 / 112 40% 2 14.12.2027 -
Juan Camilo Córdoba Deportivo Pereira Actif 83 / 94 40% 2 14.12.2027 -
Mikkel Hope Haugesund Actif 102 / 118 40% 1 14.12.2027 -
Oscar Otero Atletico Venezuela Actif 106 / 111 40% 4 12.12.2027 -
Ryan McAidoo Gillingham Actif 117 / 140 40% 1 12.12.2027 -
Jayden Danns Wigan Athletic Actif 135 / 132 40% 1 10.12.2027 -
Mauro Carrizo Atlético Tucumán Actif 95 / 98 40% 1 09.12.2027 -
Alejandro Almaraz Nueva Chicago Actif 118 / 105 40% 1 09.12.2027 -
Nazareno Roselli Defensa y Justicia Actif 117 / 126 40% 1 09.12.2027 -
Dilan Godoy Vélez Actif 105 / 124 40% 2 07.12.2027 -
Rio Ngumoha Stockport County Actif 132 / 139 40% 1 07.12.2027 -
Dylan Cabral Arsenal Actif 93 / 114 40% 1 06.12.2027 -
Felipe Obradovich Ferro Carril Oeste Actif 109 / 128 40% 1 28.11.2027 -
Bryan Caicedo Leones Actif 105 / 119 40% 2 27.11.2027 -
Lion Beqiri Falkenberg Actif 100 / 105 40% 2 26.11.2027 -
Samuel Posada Leones Actif 76 / 105 40% 2 25.11.2027 -
Cristian Florez Cortulua Actif 111 / 103 40% 2 25.11.2027 -
Sebastián Ramírez Jaguares Actif 117 / 103 40% 5 23.11.2027 -
Hervin Goyes Deportivo Pasto Actif 110 / 101 40% 4 22.11.2027 -
Diogo Guzmán Montevideo City Torque Actif 120 / 115 40% 8 22.11.2027 -
Lisandro Piñero Vélez Actif 121 / 135 40% 3 19.11.2027 -
Joel Ezra Enyimba Actif 89 / 110 40% 3 16.11.2027 -
Giovanni Cantizano Rosario Central Actif 104 / 122 40% 1 16.11.2027 -
Luca Williams-Barnett Tranmere Rovers Actif 114 / 136 40% 1 16.11.2027 -
Joaquín Muñoz O'Higgins Actif 82 / 96 40% 1 08.11.2027 -
Mateo Silvetti Los Angeles Football Club Actif 138 / 119 40% 4 05.11.2027 -
Hassan Beja AFC Leopards Actif 83 / 105 40% 2 05.11.2027 -
Ramiro Jara Racing Actif 94 / 82 40% 1 05.11.2027 -
Joel Medina Independiente Actif 109 / 112 40% 1 04.11.2027 -
Ben Gannon Doak Bournemouth Actif 145 / 153 40% 1 20.10.2027 -
Mustapha Umar Kano Pillars Actif 86 / 83 40% 1 17.10.2027 -
Lucas Duré Montevideo City Torque Actif 97 / 96 40% 2 14.10.2027 -
Tyson Pearce St. Louis CITY SC Actif 97 / 106 40% 1 29.09.2027 -
Juan Morán Godoy Cruz Actif 106 / 125 40% 1 26.09.2027 -
Daniel Gomez Valledupar Actif 82 / 90 40% 1 26.09.2027 -
Jhon Cortez Barranquilla Actif 75 / 79 40% 3 25.09.2027 -
Ángel Aguayo Sol de America Actif 88 / 98 40% 1 23.09.2027 -
Olaniyi Saheed Kwara United Actif 102 / 94 40% 1 23.09.2027 -
Hosea Michael Remo Stars Actif 96 / 92 40% 2 22.09.2027 -
Agustín Obregón River Plate Actif 117 / 133 40% 2 21.09.2027 -
Eliás Montiel Werder Bremen Actif 126 / 141 40% 1 21.09.2027 -
Thiago Helguera Braga Actif 128 / 124 40% 1 21.09.2027 -
Juan Diego Perdomo Depor Actif 91 / 93 40% 3 20.09.2027 -
Germán Barbas Penarol Actif 103 / 101 40% 1 20.09.2027 -
Esteban de Lima Tacuarembo Actif 89 / 94 40% 1 18.09.2027 -
Zahir Ibarra Defensa y Justicia Actif 105 / 114 40% 1 16.09.2027 -
Emiliano Bértoli Patronato Actif 86 / 103 40% 1 15.09.2027 -
Harbor Miller LA Galaxy Actif 86 / 109 40% 1 15.09.2027 -
José Correa Deportivo Tachira Actif 99 / 108 40% 1 14.09.2027 -
Mohamed Bolivar Barranquilla Actif 86 / 108 40% 1 14.09.2027 -
Juan Cruz Cortazzo Gimnasia La Plata Actif 101 / 109 40% 1 14.09.2027 -
Teo Rodríguez Pagano River Plate Actif 124 / 128 40% 2 13.09.2027 -
David Damboama El-Kanemi Warriors Actif 86 / 83 40% 1 13.09.2027 -
Álvaro Navoni Tigre Actif 100 / 110 40% 1 13.09.2027 -
Gabriel Moscardo Paris Saint-Germain Actif 125 / 139 40% 1 10.09.2027 -
Pablo Aguiar Independiente Actif 103 / 121 40% 1 10.09.2027 -
Agustín Campos All Boys Actif 97 / 79 40% 1 09.09.2027 -
Mads Bomholt Stabaek Actif 100 / 113 40% 1 08.09.2027 -
Joel McGregor Swindon Town Actif 93 / 103 40% 3 05.07.2027 -
Josh King Chelsea Actif 138 / 155 40% 3 05.07.2027 -
Zane Albarus Cambridge United Actif 88 / 101 40% 2 05.07.2027 -
Lewis Miley Chelsea Actif 144 / 152 40% 1 28.06.2027 -
Gonçalo Oliveira Benfica Actif 112 / 120 40% 1 28.06.2027 -
Daniel Kelly Oxford United Actif 107 / 111 40% 2 21.06.2027 -
Will Lankshear Middlesbrough Actif 122 / 130 40% 1 14.06.2027 -
Zian Flemming Ipswich Town Actif 139 / 138 40% 1 14.06.2027 -
Sascha Britschgi Padova Actif 123 / 132 40% 2 10.06.2027 -
Leonardo Mendicino Bari Actif 120 / 127 40% 1 10.06.2027 -
Facundo Torres LOSC Lille Actif 134 / 134 67% 1 01.06.2027 Approuver
Roberto Alvarado Monaco Actif 139 / 139 66% 1 01.06.2027 Approuver
Johan Manzambi Newcastle United Actif 137 / 138 40% 2 30.05.2027 -
Jon Garro Real Sociedad Actif 84 / 86 40% 3 28.05.2027 -
Kevin Vazquez Cruz Azul Actif 147 / 129 40% 4 26.05.2027 -
Christ Inao Oulaï Fiorentina Actif 141 / 142 40% 2 26.05.2027 -
Davide Bartesaghi AC Milan Actif 136 / 140 40% 4 24.05.2027 -
Jofre Torrents Ajax Actif 116 / 132 40% 2 24.05.2027 -
Finley McAllister Grimsby Town Actif 93 / 91 40% 2 22.05.2027 -
Bernardo Lima Porto Actif 93 / 114 40% 1 22.05.2027 -
Kazunari Kita Real Sociedad Actif 91 / 108 40% 3 21.05.2027 -
Dylan Lawlor Cardiff City Actif 107 / 130 40% 3 18.05.2027 -
Toni Tamarit Alverca Actif 119 / 126 40% 1 18.05.2027 -
João Teixeira Porto Actif 111 / 123 40% 3 16.05.2027 -
Ricky Atletico Venezuela Actif 90 / 92 40% 1 16.05.2027 -
Jan Bürger Gillingham Actif 106 / 124 40% 2 14.05.2027 -
Adam Bakoune Ospitaletto Actif 98 / 102 40% 1 11.05.2027 -
Noah Nartey Olympique Lyonnais Actif 136 / 138 40% 1 11.05.2027 -
Ernie Weaver AFC Wimbledon Actif 103 / 107 40% 2 09.05.2027 -
Fuzy Taylor Medeama Actif 83 / 81 40% 3 08.05.2027 -
Izan Merino Málaga Actif 117 / 128 40% 1 08.05.2027 -
Christos Mouzakitis Hull City Actif 132 / 139 40% 2 04.05.2027 -
Louis Leroux FC Nantes Actif 130 / 137 40% 1 17.04.2027 -
Darryl Bakola Padova Actif 108 / 124 40% 1 15.04.2027 -
Martim Cunha Porto Actif 102 / 110 40% 1 15.04.2027 -
Rivaldo Grobler Free State Stars Actif 108 / 120 40% 1 14.04.2027 -
Yusi Alavés Actif 123 / 134 40% 1 12.04.2027 -
Keagan Phiri Platinum Stars Actif 87 / 89 40% 2 09.04.2027 -
James Dornelly Peterborough United Actif 96 / 107 40% 1 06.04.2027 -
José Pachuca Puebla Actif 99 / 120 40% 1 06.04.2027 -
Riley Owen Trento Actif 107 / 99 40% 1 06.04.2027 -
Adam Wharton Crystal Palace Actif 147 / 152 40% 2 31.12.2026 -
Óscar Mingueza Crystal Palace Actif 147 / 141 40% 1 31.12.2026 -
Harry Clarke Preston Actif 128 / 120 40% 1 31.12.2026 -
Diego Lainez Tigres Actif 138 / 131 40% 6 27.12.2026 -
Omar Campos Cruz Azul Actif 139 / 137 40% 6 26.12.2026 -
Jesús Orozco Chiquete Cruz Azul Actif 139 / 119 40% 3 26.12.2026 -
Erick Sánchez OGC Nice Actif 135 / 136 40% 5 24.12.2026 -
Tani Oluwaseyi Villarreal Actif 138 / 134 40% 2 24.12.2026 -
Dango Ouattara Brentford Actif 146 / 136 40% 1 24.12.2026 -
Reda Khadra Qarabag Actif 128 / 129 40% 2 23.12.2026 -
Ez Abde Girona Actif 151 / 150 40% 1 23.12.2026 -
Fidel Ambríz Monterrey Actif 119 / 144 40% 3 22.12.2026 -
Aarón Mejía Tijuana Actif 124 / 128 40% 2 21.12.2026 -
Tyler Adams Bournemouth Actif 153 / 146 40% 1 21.12.2026 -
Yeremy Pino Crystal Palace Actif 154 / 145 40% 1 18.12.2026 -
Nicolás Castro Toluca Actif 131 / 122 40% 2 17.12.2026 -
Ramiro Sordo Santos Laguna Actif 136 / 116 40% 1 17.12.2026 -
Brian Gutiérrez Guadalajara Actif 134 / 128 40% 5 16.12.2026 -
Andrés Martín Racing Santander Actif 134 / 131 40% 1 15.12.2026 -
Pol Lozano Espanyol Actif 138 / 147 40% 3 14.12.2026 -
Víctor Guzmán Monterrey Actif 123 / 127 40% 1 13.12.2026 -
Félix Lemaréchal Club Brugge Actif 139 / 127 40% 1 08.12.2026 -
Tom Fellows Southampton Actif 130 / 121 40% 1 08.12.2026 -
Ezequiel Bullaude Santos Laguna Actif 135 / 136 40% 5 07.12.2026 -
Pedro Vite Pumas UNAM Actif 131 / 112 40% 3 07.12.2026 -
Jonathan Dubasin Osasuna Actif 134 / 144 40% 1 07.12.2026 -
Augusto Schott Talleres Actif 118 / 113 40% 1 06.12.2026 -
Tshepang Moremi Orlando Pirates Actif 123 / 123 40% 1 04.12.2026 -
Hugo Álvarez Celta Actif 139 / 133 40% 2 03.12.2026 -
Brian Rodríguez Club America Actif 140 / 123 40% 4 02.12.2026 -
Aarón Molinas Defensa y Justicia Actif 129 / 125 40% 3 30.11.2026 -
Kevin Fulham Actif 152 / 150 40% 1 29.11.2026 -
Aimar Osasuna Actif 153 / 152 40% 1 29.11.2026 -
Joaquim Tigres Actif 122 / 119 40% 3 27.11.2026 -
Eduardo Dos Santos Veracruz Actif 122 / 129 40% 1 25.11.2026 -
Joaquín Gho Argentinos Juniors Actif 134 / 117 40% 4 24.11.2026 -
Eric Meza Estudiantes Actif 113 / 123 40% 2 23.11.2026 -
Rodrigo Herrera Newell's Old Boys Actif 126 / 127 40% 2 23.11.2026 -
Carlos Vicente Birmingham Actif 152 / 135 40% 3 19.11.2026 -
Alan Lescano Argentinos Juniors Actif 135 / 127 40% 4 19.11.2026 -
Manuel Ospina Cortulua Actif 114 / 120 40% 2 19.11.2026 -
Gavi Barcelona Actif 163 / 167 40% 3 18.11.2026 -
Leandro Lozano Boca Juniors Actif 121 / 134 40% 1 18.11.2026 -
Siro Rosané Estudiantes Actif 128 / 108 40% 2 16.11.2026 -
Jan Carlos Ángulo Deportes Tolima Actif 129 / 122 40% 1 16.11.2026 -
Adrià Altimira Deportivo La Coruña Actif 137 / 123 40% 1 15.11.2026 -
Sebastián Santos Leon Actif 108 / 111 40% 1 14.11.2026 -
Adrien Truffert Bournemouth Actif 142 / 146 40% 1 13.11.2026 -
Ramón Juárez Club America Actif 129 / 146 40% 1 13.11.2026 -
Iker Benito Queretaro Actif 134 / 137 40% 4 09.11.2026 -
Ozziel Herrera Tigres Actif 124 / 123 40% 1 08.11.2026 -
Felipe Peña Biafore Lanús Actif 126 / 127 40% 1 08.11.2026 -
Nazareno Colombo Racing Club Actif 128 / 134 40% 1 07.11.2026 -
Ramiro Ruiz Rodríguez Atlético Tucumán Actif 124 / 122 40% 1 03.11.2026 -
Matías Fernández Independiente Rivadavia Actif 111 / 118 40% 2 02.11.2026 -
Franco Zapiola Platense Actif 124 / 115 40% 2 30.10.2026 -
Tomás O'Connor Gimnasia y Esgrima Actif 131 / 139 40% 1 28.10.2026 -
César Ibáñez Huracán Actif 119 / 113 40% 1 26.10.2026 -
Jaminton Campaz Rosario Central Actif 124 / 124 40% 1 26.10.2026 -
Sebastián Medina Tigre Actif 106 / 117 40% 1 23.10.2026 -
Tiago Palacios Estudiantes Actif 119 / 119 40% 1 20.10.2026 -
Santiago Toloza O'Higgins Actif 136 / 116 40% 1 12.10.2026 -
Adalberto Carrasquilla Pumas UNAM Actif 115 / 114 40% 1 12.10.2026 -
Richard Ledezma Guadalajara Actif 131 / 140 40% 1 01.10.2026 -
Franco Díaz Temperley Actif 114 / 127 40% 1 30.09.2026 -
Dylan Borrero America de Cali Actif 119 / 108 40% 1 30.09.2026 -
Tomás Adoryan Banfield Actif 119 / 121 40% 1 29.09.2026 -
Rémi Lemoine Chamois Niortais Actif 162 / 149 40% 1 26.09.2026 -
Junior Hernández Deportes Tolima Actif 105 / 130 40% 1 24.09.2026 -
Jannenson Sarmiento Junior Actif 123 / 130 40% 1 21.09.2026 -
Ignacio Arce Deportivo Riestra Actif 133 / 112 40% 1 01.08.2026 -
Guillermo Allison Queretaro Actif 126 / 128 40% 1 01.08.2026 -